Chelmsford, Canada
Current Conditions -  °F | °C
As of 11:00 PM on Tuesday 27 Jan 2015 (Local Time) from CYSB Reporting Station
Clear Clear  
Wind Chill: -16°   Ceiling: Unl
Heat Index:   Visibility: 15mi
Dew Point: -6°   Wind: 9mph
Humidity: 78%   Direction: 30°NNE
Pressure: 30.17"   Gusts: NA
Location:  46.58°N, 81.2°W
Report Text: CYSB 280400Z 03008KT 15SM SKC M18/M21 A3017 RMK SLP252
Loading
Personal Weather Stations






























Interactive Weather Map New forecast layout! Learn more

10-Day Weather Forecast

Advertisements
Track Severe Weather on mobile